Date,TemperatureHighF,TemperatureAvgF,TemperatureLowF,DewpointHighF,DewpointAvgF,DewpointLowF,HumidityHigh,HumidityAvg,HumidityLow,PressureMaxIn,PressureMinIn,WindSpeedMaxMPH,WindSpeedAvgMPH,GustSpeedMaxMPH,PrecipitationSumIn
2013-1-3,32,29,31,25,16,-100,76,69,74,29.96,29.95,7,-68,0,0.00
2013-1-4,37,32,28,26,24,21,80,73,63,30.00,29.89,11,5,0,0.00
2013-1-5,39,30,23,29,24,21,95,79,64,30.28,29.98,6,2,0,0.00
2013-1-6,44,33,26,34,29,24,96,85,66,30.06,29.82,4,1,0,0.00
2013-1-7,44,34,18,36,29,18,98,84,62,30.27,29.97,6,2,0,0.00
2013-1-8,39,23,12,31,21,10,98,90,70,30.31,30.23,3,0,0,0.00
2013-1-9,42,25,15,33,23,13,98,94,67,30.29,30.06,7,1,0,0.00
2013-1-10,46,33,20,34,28,19,98,85,63,30.51,30.21,5,1,0,0.00
2013-1-11,45,36,29,38,34,28,98,92,70,30.39,29.98,5,1,0,0.37
2013-1-12,44,37,34,43,36,34,98,98,95,30.06,29.97,2,0,0,0.02
2013-1-13,44,38,35,44,38,34,98,98,98,29.97,29.81,2,0,0,0.02
2013-1-14,49,42,35,42,36,28,98,80,58,30.22,29.77,8,2,0,0.17
2013-1-15,38,31,22,31,27,21,98,85,68,30.30,30.09,3,0,0,0.00
2013-1-16,38,32,27,36,31,26,98,97,90,30.07,29.76,3,0,0,0.11
2013-1-17,43,34,27,36,32,26,98,90,77,30.01,29.83,5,2,0,0.37
2013-1-18,31,25,14,26,15,10,90,66,50,30.36,29.93,9,3,0,0.00
2013-1-19,53,29,14,32,23,12,96,81,41,30.19,29.67,4,1,0,0.14
2013-1-20,48,35,20,36,23,11,98,63,42,29.98,29.54,13,5,0,0.01
2013-1-21,28,23,16,25,16,8,93,76,66,29.99,29.76,8,2,0,0.00
2013-1-22,19,12,5,8,2,-4,87,62,45,30.13,29.80,15,5,0,0.00
2013-1-23,19,9,4,6,2,-2,88,71,53,30.16,30.03,8,3,0,0.00
2013-1-24,26,14,4,8,5,0,89,67,43,30.40,30.00,9,3,0,0.00
2013-1-25,20,11,4,14,6,0,92,80,60,30.41,29.95,4,1,0,0.00
2013-1-26,28,15,5,18,11,3,93,83,63,30.32,29.98,4,1,0,0.06
2013-1-27,34,18,2,21,12,-1,94,79,53,30.49,30.32,5,1,0,0.01
2013-1-28,34,29,22,34,28,18,98,95,83,30.34,29.89,3,0,0,0.02
2013-1-29,38,34,32,38,34,32,98,98,98,30.00,29.82,2,0,0,0.35
2013-1-30,54,42,33,53,42,33,98,98,98,29.80,29.03,4,1,0,1.22
2013-1-31,53,35,22,52,28,15,98,76,58,29.67,28.97,14,6,0,0.67
2013-2-1,27,22,16,19,13,7,83,67,53,30.18,29.66,15,5,0,0.00
2013-2-2,26,18,13,20,12,5,96,77,60,30.19,29.90,7,3,0,0.00
2013-2-3,38,24,17,29,20,12,98,85,69,29.89,29.64,11,2,0,0.07
2013-2-4,31,24,16,23,15,10,96,71,57,29.92,29.78,9,3,0,0.00
2013-2-5,36,28,22,30,26,22,98,91,73,29.84,29.73,3,0,0,0.04
2013-2-6,39,27,15,31,22,14,98,81,51,30.23,29.81,11,2,0,0.04
2013-2-7,38,26,12,26,19,11,98,78,61,30.36,30.08,6,2,0,0.00
2013-2-8,36,32,25,36,30,19,98,91,69,30.08,29.66,8,2,0,0.11
2013-2-9,35,25,15,23,18,13,93,73,57,30.32,29.88,10,3,0,0.01
2013-2-10,39,25,8,26,18,5,94,77,59,30.37,30.03,6,1,0,0.00
2013-2-11,43,37,32,41,33,23,98,87,63,30.04,29.53,11,2,0,0.03
2013-2-12,40,36,22,31,27,21,98,71,62,29.88,29.64,10,4,0,0.01
2013-2-13,43,30,17,34,27,16,98,89,66,29.84,29.56,4,1,0,0.00
2013-2-14,41,29,23,34,28,22,98,94,74,29.88,29.64,4,1,0,0.07
2013-2-15,46,46,46,31,31,31,56,56,56,29.83,29.83,3,3,0,0.00
2013-2-17,25,23,22,14,14,13,70,68,65,29.77,29.76,3,3,0,0.00
2013-2-20,28,24,21,17,14,12,73,66,57,29.99,29.83,9,5,0,0.00
2013-2-21,36,26,21,22,17,14,81,69,53,30.25,29.97,9,4,0,0.01
2013-2-22,37,28,19,28,23,16,90,81,68,30.31,30.07,6,2,0,0.02
2013-2-23,39,34,31,37,33,27,98,94,84,30.06,29.74,4,1,0,0.04
2013-2-24,37,33,26,36,28,20,98,80,60,29.98,29.71,9,2,0,0.01
2013-2-25,48,31,18,33,25,17,98,80,52,30.11,29.99,5,1,0,0.00
2013-2-26,44,34,22,36,30,21,98,89,64,30.11,29.65,9,3,0,0.34
2013-2-27,41,36,33,41,35,32,98,98,98,29.65,29.46,4,1,0,0.98
2013-2-28,42,37,32,37,34,32,98,91,79,29.56,29.47,6,2,0,0.02
2013-3-1,41,36,31,33,30,24,93,78,63,29.77,29.56,7,3,0,0.00
2013-3-2,38,32,28,26,23,20,78,70,60,29.78,29.67,9,3,0,0.00
2013-3-3,36,30,24,24,22,19,92,73,60,29.76,29.65,9,4,0,0.00
2013-3-4,36,30,25,26,21,17,76,71,64,29.93,29.75,13,5,0,0.00
2013-3-5,43,32,25,31,25,22,98,77,61,29.99,29.77,5,2,0,0.00
2013-3-6,45,39,28,34,31,26,95,74,64,29.94,29.72,10,4,0,0.00
2013-3-7,46,38,28,31,28,24,91,68,54,30.08,29.95,9,3,0,0.00
2013-3-8,48,36,25,32,26,22,90,68,54,30.23,30.06,13,4,0,0.00
2013-3-9,59,36,19,38,28,18,98,77,39,30.28,30.12,5,1,0,0.00
2013-3-10,65,44,24,37,31,23,98,66,35,30.19,30.01,5,1,0,0.00
2013-3-11,58,50,41,52,40,27,97,70,41,30.03,29.72,7,2,0,0.05
2013-3-12,54,48,40,53,44,32,98,87,71,29.82,29.63,8,3,0,0.48
2013-3-13,44,36,26,35,28,19,98,75,53,29.88,29.72,10,3,0,0.00
2013-3-14,40,33,28,21,18,16,73,55,42,29.95,29.86,14,6,0,0.00
2013-3-15,46,37,22,35,28,17,86,70,62,29.96,29.62,8,4,0,0.00
2013-3-16,37,32,27,34,30,26,98,93,75,29.84,29.62,4,1,0,0.04
2013-3-17,42,33,23,30,25,22,98,75,53,30.17,29.82,6,2,0,0.23
2013-3-18,32,28,22,30,24,18,98,86,65,30.23,29.78,5,2,0,0.00
2013-3-19,50,37,30,44,32,22,98,81,53,29.78,29.56,10,3,0,0.61
2013-3-20,44,35,29,27,23,19,77,62,47,29.80,29.67,14,4,0,0.00
2013-3-21,36,27,17,22,17,14,89,67,46,29.74,29.62,9,3,0,0.00
2013-3-22,39,31,23,26,24,20,98,75,56,29.84,29.67,11,4,0,0.00
2013-3-23,45,35,24,29,24,21,88,66,49,29.89,29.80,10,4,0,0.00
2013-3-24,48,37,24,30,26,22,93,66,47,29.87,29.53,8,2,0,0.00
2013-3-25,39,36,33,38,32,26,98,87,63,29.57,29.44,6,2,0,0.22
2013-3-26,52,40,31,42,33,29,98,79,50,29.82,29.57,8,2,0,0.00
2013-3-27,50,40,32,35,32,27,94,73,53,29.94,29.83,12,4,0,0.00
2013-3-28,47,40,34,34,32,29,97,72,53,30.09,29.92,8,3,0,0.00
2013-3-29,52,43,28,40,34,27,95,71,47,30.11,30.00,8,2,0,0.00
2013-3-30,58,34,22,37,28,21,98,82,34,30.12,29.97,6,2,0,0.00
2013-3-31,43,42,42,43,42,41,98,98,98,29.61,29.60,0,0,0,0.00
2013-4-4,57,42,18,32,24,15,92,53,27,30.26,29.93,6,2,0,0.00
2013-4-5,61,55,44,31,25,21,46,32,26,29.88,29.69,10,6,0,0.01
2013-4-6,55,54,52,27,24,21,37,31,26,30.13,30.06,6,3,0,0.00
2013-4-7,70,62,53,49,44,37,71,53,46,29.91,29.74,7,3,0,0.00
2013-4-8,76,68,51,55,52,47,89,58,42,29.88,29.73,4,2,0,0.00
2013-4-9,83,68,52,57,54,49,96,63,37,29.91,29.68,7,2,0,0.00
2013-4-10,84,68,58,67,60,54,98,77,55,29.78,29.60,12,2,0,0.75
2013-4-15,59,59,58,50,50,49,74,71,69,30.09,30.06,3,2,0,0.00
2013-4-18,64,63,62,63,62,61,98,98,95,29.84,29.80,4,2,0,0.00
2013-4-19,65,64,62,62,61,60,95,92,90,29.80,29.72,4,2,0,0.00
2013-4-20,50,44,37,33,28,24,57,54,51,30.27,29.98,11,4,0,0.00
2013-4-21,56,44,31,33,29,24,74,57,40,30.46,30.31,5,1,0,0.00
2013-4-22,62,52,43,39,36,32,66,54,41,30.34,30.27,5,2,0,0.00
2013-4-23,67,52,41,46,41,32,92,66,46,30.32,29.95,6,2,0,0.00
2013-4-24,74,62,44,62,54,38,98,79,58,29.93,29.55,7,3,0,0.56
2013-4-25,65,55,42,42,37,32,79,53,36,30.18,29.95,8,3,0,0.00
2013-4-26,71,56,38,40,35,28,81,50,20,30.30,30.19,4,1,0,0.00
2013-4-27,77,61,34,46,42,32,93,53,29,30.32,30.09,5,2,0,0.00
2013-4-28,71,55,36,53,46,35,98,75,44,30.14,29.97,10,2,0,0.02
2013-4-29,59,55,52,58,52,46,98,91,75,29.99,29.93,4,2,0,0.02
2013-4-30,68,58,48,59,55,48,98,91,71,30.16,29.99,5,1,0,0.00
2013-5-1,79,59,38,52,43,37,98,63,25,30.30,30.16,8,2,0,0.00
2013-5-2,81,61,37,52,46,37,98,63,32,30.35,30.15,8,2,0,0.00
2013-5-3,77,60,41,53,47,40,98,67,39,30.27,30.10,6,2,0,0.00
2013-5-4,80,64,41,54,48,39,91,60,36,30.21,29.99,7,2,0,0.00
2013-5-5,81,62,41,52,43,35,98,57,23,30.11,29.95,6,2,0,0.00
2013-5-6,77,66,45,60,54,42,93,66,53,30.09,29.93,7,2,0,0.00
2013-5-7,81,66,48,63,56,48,98,75,44,29.99,29.85,8,2,0,0.00
2013-5-8,65,60,56,64,59,56,98,97,81,29.91,29.78,4,1,0,2.36
2013-5-9,72,60,54,66,59,53,98,94,74,29.86,29.76,4,1,0,0.34
2013-5-10,71,60,56,68,60,55,98,97,89,29.89,29.71,3,1,0,0.28
2013-5-11,70,64,57,67,59,52,98,84,68,29.63,29.57,7,3,0,0.13
2013-5-12,59,53,46,52,44,36,98,73,48,29.76,29.60,10,4,0,0.05
2013-5-14,56,56,56,42,42,42,58,58,58,29.89,29.89,2,2,0,0.00
2013-5-15,87,82,76,68,64,57,61,54,50,29.58,29.48,8,4,0,0.00
2013-5-16,88,80,68,63,53,45,77,42,24,29.79,29.62,6,4,0,0.00
2013-5-17,82,72,60,53,50,44,57,47,37,29.98,29.83,2,1,0,0.00
2013-5-18,70,68,65,59,58,57,75,71,68,30.08,30.05,5,2,0,0.00
2013-5-19,67,64,63,64,63,62,98,96,87,30.07,29.99,3,1,0,0.00
2013-5-20,89,80,67,74,71,66,98,76,59,29.95,29.81,7,2,0,0.00
2013-5-21,93,77,60,76,69,59,98,79,48,29.84,29.64,6,1,0,0.00
2013-5-22,93,76,65,73,69,64,98,80,46,29.76,29.59,7,2,0,0.16
2013-5-23,81,69,62,72,66,62,98,93,68,29.72,29.56,5,1,0,0.41
2013-5-24,63,55,47,62,51,42,98,88,68,29.99,29.59,7,3,0,0.26
2013-5-25,67,65,62,45,43,41,50,45,39,29.98,29.94,10,6,0,0.00
2013-5-26,74,62,44,44,41,39,86,51,31,30.10,29.98,8,3,0,0.00
2013-5-27,80,66,40,51,48,38,92,54,33,30.17,29.97,5,2,0,0.00
2013-5-28,53,53,52,51,50,49,94,92,88,30.07,30.04,2,0,0,0.00
2013-5-29,92,80,64,75,70,63,98,75,54,29.94,29.86,7,2,0,0.01
2013-5-30,94,81,58,74,69,58,98,71,47,30.04,29.93,6,2,0,0.00
2013-5-31,94,78,62,76,69,62,98,77,48,30.00,29.84,6,1,0,0.00
2013-6-1,93,78,62,75,69,61,98,77,54,29.87,29.71,7,2,0,0.00
2013-6-2,87,77,68,75,70,64,98,80,50,29.70,29.59,8,2,0,0.00
2013-6-3,74,68,61,65,64,60,98,88,71,29.77,29.68,5,1,0,0.00
2013-6-4,78,69,63,55,52,50,69,55,39,29.99,29.92,6,4,0,0.00
2013-6-5,82,78,69,60,57,52,60,48,44,30.05,29.90,5,3,0,0.00
2013-6-6,69,64,60,62,58,54,98,83,66,29.92,29.73,8,2,0,0.54
2013-6-7,68,65,61,67,64,61,98,98,98,29.73,29.56,5,1,0,0.09
2013-6-9,82,72,64,65,64,62,98,77,52,30.09,29.99,5,2,0,0.00
2013-6-10,68,66,64,67,65,64,98,98,97,29.99,29.63,3,0,0,0.16
2013-6-11,74,56,66,72,37,-100,98,79,93,29.64,29.60,3,-180,0,0.00
2013-6-13,67,62,60,66,61,59,98,97,94,29.54,29.40,5,3,0,0.01
2013-6-14,68,61,59,61,59,58,98,93,80,29.73,29.54,4,2,0,0.00
2013-6-15,82,72,57,67,62,56,98,73,50,29.93,29.85,7,3,0,0.04
2013-6-16,76,62,57,70,61,57,98,94,78,29.89,29.67,4,0,0,0.00
2013-6-17,88,77,61,72,67,61,98,72,47,29.79,29.72,6,2,0,0.00
2013-6-18,80,75,60,71,67,60,98,76,67,29.80,29.69,7,2,0,0.00
2013-6-22,77,77,77,70,70,70,79,79,79,29.99,29.99,2,2,0,0.00
2013-6-23,93,85,77,76,74,72,83,71,57,30.03,29.89,4,2,0,0.00
2013-6-24,100,81,65,76,72,64,98,77,42,29.97,29.81,6,1,0,0.00
2013-6-25,88,73,66,77,70,65,98,92,65,29.88,29.75,10,2,0,0.13
2013-6-26,92,77,67,75,71,66,98,83,57,29.76,29.66,6,2,0,0.04
2013-6-27,82,75,68,77,72,68,98,93,78,29.66,29.43,7,2,0,0.96
2013-6-28,82,72,65,74,69,64,98,91,74,29.44,29.32,5,1,0,0.16
2013-6-29,86,73,61,70,66,60,98,82,56,29.57,29.38,11,2,0,0.00
2013-6-30,92,80,65,76,72,64,98,79,59,29.78,29.57,6,2,0,0.13
2013-7-1,83,73,67,77,72,66,98,96,82,29.85,29.73,4,1,0,0.80
2013-7-2,86,76,69,81,74,69,98,93,76,29.99,29.84,4,1,0,0.10
2013-7-3,92,79,69,79,74,69,98,88,61,30.08,29.98,6,1,0,0.00
2013-7-4,94,84,71,79,76,70,98,78,58,30.09,29.98,9,2,0,0.00
2013-7-5,92,84,70,82,77,70,98,83,62,30.07,29.95,4,1,0,0.08
2013-7-6,97,84,71,79,77,70,98,79,55,30.06,29.90,6,2,0,0.00
2013-7-7,91,79,70,79,74,69,98,86,61,29.96,29.83,8,2,0,0.99
2013-7-8,85,74,67,77,71,66,98,92,73,29.96,29.89,5,1,0,0.05
2013-7-9,84,74,67,79,72,66,98,94,78,29.97,29.84,5,1,0,0.18
2013-7-10,88,78,68,80,74,67,98,89,72,29.85,29.67,8,2,0,0.46
2013-7-11,88,75,64,74,67,63,98,78,50,29.86,29.70,6,2,0,0.01
2013-7-12,80,71,62,71,67,62,98,88,74,30.00,29.85,6,1,0,0.03
2013-7-13,86,74,67,78,72,66,98,94,72,30.14,29.98,4,1,0,0.16
2013-7-14,99,80,68,80,74,67,98,84,51,30.22,30.12,6,1,0,0.00
2013-7-15,97,80,68,81,75,68,98,85,59,30.19,30.07,7,1,0,0.00
2013-7-16,100,83,70,79,75,69,98,81,49,30.18,30.04,7,1,0,0.00
2013-7-17,100,83,68,82,76,68,98,83,56,30.14,29.95,6,2,0,0.00
2013-7-18,98,81,70,82,76,70,98,86,57,30.01,29.82,10,2,0,0.85
2013-7-19,97,82,70,83,76,69,98,83,57,29.91,29.66,7,2,0,0.00
2013-7-20,91,81,72,78,74,70,95,81,61,29.74,29.63,9,2,0,0.00
2013-7-21,90,79,67,75,71,66,98,78,48,29.83,29.75,4,1,0,0.00
2013-7-23,87,78,72,73,69,66,82,75,62,29.55,29.48,5,2,0,0.00
2013-7-24,64,61,60,58,57,56,87,85,81,29.89,29.81,3,1,0,0.00
2013-7-25,64,54,48,60,52,48,98,96,83,29.95,29.88,4,0,0,0.00
2013-7-26,63,62,60,62,61,60,98,98,97,29.91,29.89,0,0,0,0.00
2013-7-27,69,58,55,68,57,54,98,98,98,29.90,29.79,0,0,0,0.00
2013-7-28,89,81,68,70,66,64,98,63,46,29.78,29.72,7,2,0,0.00
2013-7-29,64,62,59,60,60,59,98,93,86,30.03,30.00,2,1,0,0.00
2013-7-30,76,64,58,66,62,58,98,93,73,30.03,30.00,0,0,0,0.00
2013-7-31,70,64,60,67,63,60,98,95,90,30.05,29.86,2,0,0,0.00
2013-8-1,70,67,66,69,66,66,98,98,98,29.79,29.74,0,0,0,0.00
2013-8-5,73,59,50,62,56,49,98,92,68,30.00,29.90,2,0,0,0.00
2013-8-7,68,67,65,67,66,64,98,96,92,29.94,29.87,2,0,0,0.00
2013-8-10,87,80,66,72,66,62,95,65,49,29.94,29.86,6,2,0,0.00
2013-8-11,86,76,62,69,66,61,98,73,56,29.99,29.87,8,1,0,0.00
2013-8-12,61,61,60,61,60,60,98,98,98,29.92,29.91,0,0,0,0.00
2013-8-13,66,65,65,65,65,64,98,98,98,29.78,29.66,2,0,0,0.00
2013-8-14,67,61,55,55,53,52,91,75,64,29.96,29.90,3,1,0,0.00
2013-8-19,80,68,63,70,66,62,98,92,71,29.95,29.91,0,0,0,0.00
2013-8-20,89,71,61,71,65,60,98,84,47,30.06,29.95,7,2,0,0.00
2013-8-21,86,66,56,72,63,55,98,93,63,30.10,29.91,3,0,0,0.00
2013-8-22,88,75,65,75,70,64,98,87,61,29.94,29.72,7,2,0,0.03
2013-8-23,82,66,64,67,64,62,98,96,52,29.93,29.83,4,0,0,0.01
2013-8-24,83,72,56,62,60,55,98,69,47,30.21,30.14,4,1,0,0.00
2013-8-25,85,66,50,68,59,50,98,83,51,30.30,30.08,5,1,0,0.00
2013-8-26,88,72,61,73,67,60,98,88,58,30.10,29.81,4,1,0,0.01
2013-8-27,80,72,70,75,71,69,98,96,83,29.83,29.80,3,1,0,0.00
2013-8-28,82,77,72,78,75,71,98,94,83,29.76,29.69,5,1,0,0.17
2013-8-29,91,77,65,76,71,64,98,85,58,29.89,29.75,5,1,0,0.01
2013-8-30,87,85,81,73,72,71,70,65,62,29.69,29.67,3,2,0,0.00
2013-8-31,88,83,73,78,76,72,98,80,68,29.71,29.59,7,2,0,0.01
2013-9-1,81,72,68,75,71,68,98,97,81,29.71,29.62,2,0,0,0.00
2013-9-2,85,74,70,72,69,66,98,85,60,29.65,29.55,4,1,0,0.00
2013-9-3,69,65,62,68,62,61,98,89,78,29.83,29.64,5,2,0,0.00
2013-9-4,68,66,65,62,62,61,87,85,81,29.88,29.86,2,1,0,0.00
2013-9-5,71,63,53,65,58,48,98,84,51,30.08,29.83,5,2,0,0.00
2013-9-6,52,49,45,47,46,44,98,89,83,30.11,30.08,2,0,0,0.00
2013-9-7,81,67,45,64,55,44,98,71,34,30.00,29.79,5,2,0,0.00
2013-9-8,74,60,54,65,55,52,94,85,75,29.98,29.84,5,2,0,0.14
2013-9-11,89,85,81,80,80,79,93,84,75,29.97,29.97,3,2,0,0.00
2013-9-12,73,69,64,72,68,63,98,98,98,29.63,29.59,4,0,0,0.17
2013-9-13,64,62,60,63,61,59,98,98,98,29.63,29.61,2,0,0,0.00
2013-9-14,64,56,44,53,50,44,98,83,65,30.03,29.91,9,1,0,0.03
2013-9-15,68,61,43,59,57,43,98,88,68,30.04,29.93,4,1,0,0.00
2013-9-16,62,57,55,57,55,49,98,94,79,30.18,29.92,6,1,0,0.05
2013-9-18,73,64,47,56,53,46,98,70,52,30.12,29.99,5,2,0,0.00
2013-9-19,79,52,41,66,49,41,98,91,64,30.06,29.91,4,0,0,0.00
2013-9-20,82,68,52,69,62,51,98,84,62,29.95,29.72,9,1,0,0.00
2013-9-21,61,60,60,61,60,60,98,98,98,29.77,29.76,2,0,0,0.00
2013-9-22,57,56,55,49,47,46,75,73,71,29.85,29.83,5,2,0,0.00
2013-9-23,57,52,42,49,47,41,98,82,76,29.98,29.86,4,1,0,0.00
2013-9-24,42,42,42,41,41,41,98,98,98,29.99,29.99,0,0,0,0.00
2013-9-25,74,64,47,58,54,46,98,73,56,29.85,29.73,5,1,0,0.00
2013-9-26,77,71,57,61,59,53,87,67,57,29.93,29.83,6,2,0,0.00
2013-9-27,69,69,69,61,61,61,77,77,77,30.09,30.09,3,3,0,0.00
2013-9-28,72,60,48,59,53,47,98,82,60,30.13,30.08,4,1,0,0.01
2013-9-29,75,62,45,61,54,45,98,78,58,30.10,29.90,5,1,0,0.00
2013-9-30,77,61,44,61,55,43,98,82,57,29.95,29.78,6,1,0,0.00
2013-10-1,78,63,51,66,58,51,98,86,55,29.92,29.77,8,1,0,0.00
2013-10-2,83,63,47,70,58,47,98,86,63,29.94,29.83,5,1,0,0.00
2013-10-3,81,66,53,69,62,52,98,88,68,30.01,29.87,4,0,0,0.00
2013-10-4,64,64,63,63,63,62,98,98,98,29.91,29.90,0,0,0,0.00
2013-10-5,85,72,63,74,68,62,98,91,67,29.98,29.84,4,1,0,0.00
2013-10-6,87,76,66,75,71,66,98,86,59,29.87,29.73,8,2,0,0.01
2013-10-7,73,68,51,70,64,47,92,88,83,29.92,29.58,9,3,0,0.00
2013-10-9,51,51,51,47,47,47,86,86,86,30.17,30.17,0,0,0,0.00
2013-10-11,65,61,57,60,58,56,98,91,82,29.96,29.91,3,0,0,0.00
2013-10-12,73,63,53,58,52,50,94,70,45,30.10,29.98,3,1,0,0.00
2013-10-13,60,59,56,57,56,52,97,90,86,30.13,30.09,3,0,0,0.00
2013-10-14,58,58,58,58,58,58,98,98,98,30.15,30.14,0,0,0,0.04
2013-10-15,63,58,56,58,56,55,98,94,80,30.14,29.92,3,0,0,0.00
2013-10-17,69,66,63,59,58,57,84,76,71,29.77,29.73,4,3,0,0.04
2013-10-21,62,62,62,46,46,46,56,56,56,29.78,29.78,2,2,0,0.00
2013-10-22,60,56,47,44,39,35,62,54,50,29.70,29.65,6,3,0,0.00
2013-10-27,51,51,51,38,38,38,60,60,60,29.89,29.89,4,4,0,0.00
2013-10-30,63,52,42,50,45,42,98,79,56,30.04,29.96,3,0,0,0.00
2013-10-31,64,60,46,63,60,45,98,98,96,30.03,29.49,4,1,0,0.22
2013-11-1,69,62,47,64,56,45,98,81,56,29.54,29.23,11,4,0,0.51
2013-11-2,52,50,47,48,46,45,97,89,82,29.72,29.61,3,2,0,0.01
2013-11-3,46,46,45,44,43,42,92,91,90,29.75,29.74,3,3,0,0.00
2013-11-4,33,32,31,27,27,26,87,82,75,30.48,30.45,1,0,0,0.01
2013-11-6,64,60,55,56,54,52,90,81,71,30.08,29.78,9,2,0,0.00
2013-11-7,62,54,44,55,47,36,98,78,68,29.83,29.71,8,3,0,0.00
2013-11-9,43,43,43,37,37,37,79,79,79,29.82,29.82,0,0,0,0.00
2013-11-10,50,46,38,37,36,32,77,68,59,30.03,29.82,11,5,0,0.00
2013-11-14,54,40,25,24,22,21,85,55,28,30.04,30.01,5,2,0,0.04
2013-11-16,60,50,45,48,44,42,96,81,63,30.08,30.05,2,0,0,0.00
2013-11-17,60,58,55,60,57,54,98,98,98,29.79,29.42,6,3,0,0.46
2013-11-18,61,54,48,60,44,33,98,70,48,29.70,29.38,14,5,0,0.19
2013-11-23,25,24,22,13,11,9,60,58,56,30.05,30.01,6,4,0,0.09
2013-11-24,24,20,16,19,8,5,99,61,49,30.30,30.03,9,4,0,0.00
2013-11-28,28,26,23,22,22,21,96,83,74,30.30,30.04,3,2,0,0.00
2013-11-29,34,27,19,28,23,19,98,86,66,30.53,30.29,5,1,0,0.01
2013-12-2,37,35,34,33,32,32,93,89,84,29.74,29.73,1,0,0,0.00
2013-12-16,-200,0,200,-100,-100,-100,0,0,100,0.00,40.00,0,-999,0,0.00
2013-12-17,10,10,10,8,8,8,93,93,93,30.05,30.05,2,2,0,0.00
2013-12-19,39,23,11,30,20,10,98,90,68,30.00,29.89,2,0,0,0.10
2013-12-21,47,40,37,44,39,36,98,97,83,29.81,29.69,3,0,0,0.95
2013-12-22,63,46,36,60,45,36,98,97,87,29.81,29.54,5,1,0,0.08
2013-12-23,50,43,33,48,40,25,98,88,68,30.12,29.79,9,2,0,0.03
2013-12-24,36,27,20,30,21,11,98,78,64,30.33,30.06,10,2,0,0.00
2013-12-25,28,20,9,17,12,6,89,71,59,30.46,30.20,6,2,0,0.00
2013-12-26,37,28,23,33,25,17,98,88,67,30.21,30.05,5,1,0,0.08
2013-12-27,39,28,18,30,24,16,98,84,69,30.25,30.14,5,1,0,0.00
2013-12-28,53,31,16,39,27,16,98,87,57,30.14,29.92,9,1,0,0.00
2013-12-29,38,34,29,38,33,28,98,98,98,29.93,29.51,3,0,0,1.39
2013-12-30,40,32,22,39,26,13,98,79,64,30.07,29.63,8,3,0,0.02
2013-12-31,32,23,19,28,16,11,88,74,60,30.17,29.93,9,3,0,0.02
2014-1-1,30,23,18,25,20,14,98,89,77,30.29,30.06,3,1,0,0.00
2014-1-2,25,20,12,24,19,10,98,94,84,30.06,29.66,6,2,0,0.00